Accueil
METAR-TAF:

METAR-TAF

Aéroports :

Toronto, Ontario, Canada

Aéroport international Pearson de Toronto

latitude: 43-40N, longitude: 079-38W, altitude: 173 m

Observation

Le bulletin a été fait il y a 1 heure et 8 minutes, à 23:00 UTC
Vent 11 kt de nord
Température 6°C
Humidité 49%
Pression 1029 hPa
Visibilité: 24.1 km
Quelques nuages à une hauteur de 17000 ft

METAR: CYYZ 202300Z 01011KT 15SM FEW170 06/M04 A3040 RMK AC1 AC TR SLP304

Heure: 20:08 (00:08 UTC)

Prévision

Le bulletin a été fait il y a 30 minutes, à 23:38 UTC
Prévision valable du 21 à 00 UTC au 22 à 06 UTC
Vent 10 kt de nord/nord-ouest
Visibilité: 10 km
Quelques nuages à une hauteur de 25000 ft

TAF: CYYZ 202338Z 2100/2206 33010KT P6SM FEW250 RMK NXT FCST BY 210300Z

Observations et prévisions météorologiques de plus de 4000 aéroports (messages METAR et TAF).

Les stations disponibles sont représentées par des disques jaunes et rouges sur la carte.

Passer la souris dessus pour voir le nom de la station.

Cliquer dessus pour voir les observations et prévisions météorologiques.

Pour changer de carte: cliquez sur les boutons verts avec une croix noire pour zoomer, sur le bouton vert avec un tiret pour effectuer un zoom arrière, ou sur les flèches vertes pour les cartes adjacentes.


METAR-TAF: